sensor_id;sensor_type;location;lat;lon;timestamp;P1;durP1;ratioP1;P2;durP2;ratioP2
32874;SDS011;40468;42.128;24.750;2023-12-29T00:01:28;42.53;;;20.95;;
32874;SDS011;40468;42.128;24.750;2023-12-29T00:03:00;50.58;;;19.83;;
32874;SDS011;40468;42.128;24.750;2023-12-29T00:04:31;43.22;;;20.35;;
32874;SDS011;40468;42.128;24.750;2023-12-29T00:06:03;47.78;;;20.48;;
32874;SDS011;40468;42.128;24.750;2023-12-29T00:07:34;41.45;;;20.30;;
32874;SDS011;40468;42.128;24.750;2023-12-29T00:09:07;49.88;;;21.98;;
32874;SDS011;40468;42.128;24.750;2023-12-29T00:10:38;45.67;;;20.90;;
32874;SDS011;40468;42.128;24.750;2023-12-29T00:12:10;43.55;;;21.00;;
32874;SDS011;40468;42.128;24.750;2023-12-29T00:13:41;45.63;;;20.42;;
32874;SDS011;40468;42.128;24.750;2023-12-29T00:15:12;49.30;;;20.30;;
32874;SDS011;40468;42.128;24.750;2023-12-29T00:16:48;49.22;;;19.63;;
32874;SDS011;40468;42.128;24.750;2023-12-29T00:18:19;45.83;;;20.20;;
32874;SDS011;40468;42.128;24.750;2023-12-29T00:19:51;40.90;;;19.35;;
32874;SDS011;40468;42.128;24.750;2023-12-29T00:21:23;36.23;;;17.17;;
32874;SDS011;40468;42.128;24.750;2023-12-29T00:22:55;33.95;;;16.63;;
32874;SDS011;40468;42.128;24.750;2023-12-29T00:24:30;32.88;;;15.82;;
32874;SDS011;40468;42.128;24.750;2023-12-29T00:26:02;33.42;;;14.85;;
32874;SDS011;40468;42.128;24.750;2023-12-29T00:27:33;42.78;;;16.95;;
32874;SDS011;40468;42.128;24.750;2023-12-29T00:30:38;29.63;;;13.90;;
32874;SDS011;40468;42.128;24.750;2023-12-29T00:32:10;39.75;;;15.82;;
32874;SDS011;40468;42.128;24.750;2023-12-29T00:33:41;38.25;;;17.05;;
32874;SDS011;40468;42.128;24.750;2023-12-29T00:35:13;32.30;;;15.57;;
32874;SDS011;40468;42.128;24.750;2023-12-29T00:36:43;32.30;;;14.02;;
32874;SDS011;40468;42.128;24.750;2023-12-29T00:38:15;32.25;;;15.43;;
32874;SDS011;40468;42.128;24.750;2023-12-29T00:39:47;36.42;;;15.13;;
32874;SDS011;40468;42.128;24.750;2023-12-29T00:41:19;32.85;;;14.13;;
32874;SDS011;40468;42.128;24.750;2023-12-29T00:42:50;33.28;;;13.40;;
32874;SDS011;40468;42.128;24.750;2023-12-29T00:44:22;33.40;;;14.35;;
32874;SDS011;40468;42.128;24.750;2023-12-29T00:45:53;30.42;;;14.70;;
32874;SDS011;40468;42.128;24.750;2023-12-29T00:47:24;39.05;;;16.50;;
32874;SDS011;40468;42.128;24.750;2023-12-29T00:48:55;31.55;;;14.82;;
32874;SDS011;40468;42.128;24.750;2023-12-29T00:50:27;29.90;;;15.05;;
32874;SDS011;40468;42.128;24.750;2023-12-29T00:51:59;30.60;;;14.88;;
32874;SDS011;40468;42.128;24.750;2023-12-29T00:53:30;33.17;;;15.68;;
32874;SDS011;40468;42.128;24.750;2023-12-29T00:55:04;42.70;;;18.55;;
32874;SDS011;40468;42.128;24.750;2023-12-29T00:56:35;30.42;;;14.73;;
32874;SDS011;40468;42.128;24.750;2023-12-29T00:58:07;36.53;;;15.40;;
32874;SDS011;40468;42.128;24.750;2023-12-29T00:59:37;25.27;;;12.63;;
32874;SDS011;40468;42.128;24.750;2023-12-29T01:01:10;25.00;;;13.20;;
32874;SDS011;40468;42.128;24.750;2023-12-29T01:02:41;30.58;;;13.30;;
32874;SDS011;40468;42.128;24.750;2023-12-29T01:04:13;28.90;;;14.05;;
32874;SDS011;40468;42.128;24.750;2023-12-29T01:05:44;29.45;;;13.23;;
32874;SDS011;40468;42.128;24.750;2023-12-29T01:07:16;31.52;;;13.65;;
32874;SDS011;40468;42.128;24.750;2023-12-29T01:08:46;28.52;;;13.48;;
32874;SDS011;40468;42.128;24.750;2023-12-29T01:10:20;30.75;;;14.00;;
32874;SDS011;40468;42.128;24.750;2023-12-29T01:11:51;27.85;;;15.13;;
32874;SDS011;40468;42.128;24.750;2023-12-29T01:13:22;34.10;;;14.65;;
32874;SDS011;40468;42.128;24.750;2023-12-29T01:14:54;30.17;;;13.00;;
32874;SDS011;40468;42.128;24.750;2023-12-29T01:16:25;31.58;;;14.07;;
32874;SDS011;40468;42.128;24.750;2023-12-29T01:17:57;27.55;;;12.18;;
32874;SDS011;40468;42.128;24.750;2023-12-29T01:19:28;24.92;;;12.50;;
32874;SDS011;40468;42.128;24.750;2023-12-29T01:21:00;34.65;;;13.02;;
32874;SDS011;40468;42.128;24.750;2023-12-29T01:22:30;28.17;;;12.82;;
32874;SDS011;40468;42.128;24.750;2023-12-29T01:24:02;30.17;;;12.75;;
32874;SDS011;40468;42.128;24.750;2023-12-29T01:25:36;25.75;;;12.43;;
32874;SDS011;40468;42.128;24.750;2023-12-29T01:27:07;25.95;;;13.70;;
32874;SDS011;40468;42.128;24.750;2023-12-29T01:28:38;30.00;;;13.13;;
32874;SDS011;40468;42.128;24.750;2023-12-29T01:30:10;29.90;;;13.32;;
32874;SDS011;40468;42.128;24.750;2023-12-29T01:31:42;26.90;;;13.32;;
32874;SDS011;40468;42.128;24.750;2023-12-29T01:33:14;29.27;;;13.18;;
32874;SDS011;40468;42.128;24.750;2023-12-29T01:34:45;26.98;;;12.40;;
32874;SDS011;40468;42.128;24.750;2023-12-29T01:36:17;29.50;;;12.27;;
32874;SDS011;40468;42.128;24.750;2023-12-29T01:37:48;22.58;;;12.15;;
32874;SDS011;40468;42.128;24.750;2023-12-29T01:39:20;24.67;;;12.15;;
32874;SDS011;40468;42.128;24.750;2023-12-29T01:40:52;24.42;;;12.30;;
32874;SDS011;40468;42.128;24.750;2023-12-29T01:42:24;30.50;;;13.13;;
32874;SDS011;40468;42.128;24.750;2023-12-29T01:44:11;28.20;;;12.23;;
32874;SDS011;40468;42.128;24.750;2023-12-29T01:45:52;28.80;;;13.27;;
32874;SDS011;40468;42.128;24.750;2023-12-29T01:47:23;30.25;;;13.93;;
32874;SDS011;40468;42.128;24.750;2023-12-29T01:48:54;29.25;;;13.35;;
32874;SDS011;40468;42.128;24.750;2023-12-29T01:50:27;37.35;;;15.55;;
32874;SDS011;40468;42.128;24.750;2023-12-29T01:51:59;36.80;;;17.35;;
32874;SDS011;40468;42.128;24.750;2023-12-29T01:53:31;33.30;;;16.55;;
32874;SDS011;40468;42.128;24.750;2023-12-29T01:55:03;32.40;;;14.63;;
32874;SDS011;40468;42.128;24.750;2023-12-29T01:56:36;32.08;;;14.82;;
32874;SDS011;40468;42.128;24.750;2023-12-29T01:58:08;34.55;;;15.57;;
32874;SDS011;40468;42.128;24.750;2023-12-29T01:59:39;33.78;;;15.73;;
32874;SDS011;40468;42.128;24.750;2023-12-29T02:01:11;39.92;;;18.48;;
32874;SDS011;40468;42.128;24.750;2023-12-29T02:02:43;51.78;;;23.35;;
32874;SDS011;40468;42.128;24.750;2023-12-29T02:04:16;53.65;;;24.13;;
32874;SDS011;40468;42.128;24.750;2023-12-29T02:05:48;41.55;;;19.25;;
32874;SDS011;40468;42.128;24.750;2023-12-29T02:07:21;40.38;;;18.02;;
32874;SDS011;40468;42.128;24.750;2023-12-29T02:08:52;36.40;;;17.98;;
32874;SDS011;40468;42.128;24.750;2023-12-29T02:10:24;34.88;;;17.13;;
32874;SDS011;40468;42.128;24.750;2023-12-29T02:11:57;36.00;;;17.15;;
32874;SDS011;40468;42.128;24.750;2023-12-29T02:13:28;35.25;;;16.70;;
32874;SDS011;40468;42.128;24.750;2023-12-29T02:15:00;33.80;;;16.75;;
32874;SDS011;40468;42.128;24.750;2023-12-29T02:16:33;35.55;;;17.38;;
32874;SDS011;40468;42.128;24.750;2023-12-29T02:18:10;33.63;;;17.70;;
32874;SDS011;40468;42.128;24.750;2023-12-29T02:19:45;37.63;;;16.98;;
32874;SDS011;40468;42.128;24.750;2023-12-29T02:21:22;32.67;;;17.13;;
32874;SDS011;40468;42.128;24.750;2023-12-29T02:22:54;37.70;;;17.73;;
32874;SDS011;40468;42.128;24.750;2023-12-29T02:24:25;33.10;;;17.40;;
32874;SDS011;40468;42.128;24.750;2023-12-29T02:25:58;35.15;;;18.15;;
32874;SDS011;40468;42.128;24.750;2023-12-29T02:27:38;32.25;;;15.15;;
32874;SDS011;40468;42.128;24.750;2023-12-29T02:29:14;32.80;;;16.92;;
32874;SDS011;40468;42.128;24.750;2023-12-29T02:30:51;32.88;;;15.80;;
32874;SDS011;40468;42.128;24.750;2023-12-29T02:32:27;28.60;;;14.48;;
32874;SDS011;40468;42.128;24.750;2023-12-29T02:34:00;32.03;;;14.65;;
32874;SDS011;40468;42.128;24.750;2023-12-29T02:35:38;29.42;;;15.35;;
32874;SDS011;40468;42.128;24.750;2023-12-29T02:37:12;32.70;;;14.38;;
32874;SDS011;40468;42.128;24.750;2023-12-29T02:38:43;28.98;;;13.57;;
32874;SDS011;40468;42.128;24.750;2023-12-29T02:40:15;27.77;;;13.82;;
32874;SDS011;40468;42.128;24.750;2023-12-29T02:41:47;28.35;;;13.75;;
32874;SDS011;40468;42.128;24.750;2023-12-29T02:43:19;28.20;;;14.02;;
32874;SDS011;40468;42.128;24.750;2023-12-29T02:44:50;34.97;;;14.07;;
32874;SDS011;40468;42.128;24.750;2023-12-29T02:46:22;28.48;;;13.32;;
32874;SDS011;40468;42.128;24.750;2023-12-29T02:47:52;27.98;;;13.52;;
32874;SDS011;40468;42.128;24.750;2023-12-29T02:49:24;30.52;;;14.32;;
32874;SDS011;40468;42.128;24.750;2023-12-29T02:50:56;33.17;;;15.30;;
32874;SDS011;40468;42.128;24.750;2023-12-29T02:52:28;31.92;;;14.98;;
32874;SDS011;40468;42.128;24.750;2023-12-29T02:53:58;31.05;;;13.98;;
32874;SDS011;40468;42.128;24.750;2023-12-29T02:55:30;31.05;;;13.70;;
32874;SDS011;40468;42.128;24.750;2023-12-29T02:57:02;29.70;;;14.98;;
32874;SDS011;40468;42.128;24.750;2023-12-29T02:58:34;32.88;;;15.57;;
32874;SDS011;40468;42.128;24.750;2023-12-29T03:00:05;28.67;;;15.43;;
32874;SDS011;40468;42.128;24.750;2023-12-29T03:01:38;32.20;;;17.00;;
32874;SDS011;40468;42.128;24.750;2023-12-29T03:03:09;36.38;;;17.75;;
32874;SDS011;40468;42.128;24.750;2023-12-29T03:04:41;38.20;;;17.75;;
32874;SDS011;40468;42.128;24.750;2023-12-29T03:06:11;40.67;;;17.83;;
32874;SDS011;40468;42.128;24.750;2023-12-29T03:07:43;37.65;;;17.08;;
32874;SDS011;40468;42.128;24.750;2023-12-29T03:09:14;34.22;;;16.88;;
32874;SDS011;40468;42.128;24.750;2023-12-29T03:10:46;34.47;;;16.52;;
32874;SDS011;40468;42.128;24.750;2023-12-29T03:12:18;33.45;;;16.13;;
32874;SDS011;40468;42.128;24.750;2023-12-29T03:13:50;33.97;;;16.55;;
32874;SDS011;40468;42.128;24.750;2023-12-29T03:15:20;32.20;;;15.73;;
32874;SDS011;40468;42.128;24.750;2023-12-29T03:16:52;31.95;;;15.88;;
32874;SDS011;40468;42.128;24.750;2023-12-29T03:18:23;33.40;;;16.42;;
32874;SDS011;40468;42.128;24.750;2023-12-29T03:19:55;32.08;;;15.70;;
32874;SDS011;40468;42.128;24.750;2023-12-29T03:21:25;39.65;;;16.52;;
32874;SDS011;40468;42.128;24.750;2023-12-29T03:22:57;30.85;;;15.13;;
32874;SDS011;40468;42.128;24.750;2023-12-29T03:24:29;39.70;;;15.73;;
32874;SDS011;40468;42.128;24.750;2023-12-29T03:26:00;31.90;;;16.02;;
32874;SDS011;40468;42.128;24.750;2023-12-29T03:27:34;30.75;;;15.90;;
32874;SDS011;40468;42.128;24.750;2023-12-29T03:29:05;37.60;;;16.88;;
32874;SDS011;40468;42.128;24.750;2023-12-29T03:30:36;35.85;;;16.48;;
32874;SDS011;40468;42.128;24.750;2023-12-29T03:32:07;32.63;;;15.65;;
32874;SDS011;40468;42.128;24.750;2023-12-29T03:33:39;35.85;;;15.70;;
32874;SDS011;40468;42.128;24.750;2023-12-29T03:35:10;32.95;;;15.98;;
32874;SDS011;40468;42.128;24.750;2023-12-29T03:36:42;31.95;;;16.48;;
32874;SDS011;40468;42.128;24.750;2023-12-29T03:38:13;35.40;;;16.05;;
32874;SDS011;40468;42.128;24.750;2023-12-29T03:39:45;33.03;;;15.55;;
32874;SDS011;40468;42.128;24.750;2023-12-29T03:41:16;31.55;;;15.25;;
32874;SDS011;40468;42.128;24.750;2023-12-29T03:42:50;37.72;;;16.33;;
32874;SDS011;40468;42.128;24.750;2023-12-29T03:44:21;33.40;;;17.98;;
32874;SDS011;40468;42.128;24.750;2023-12-29T03:45:52;37.13;;;16.02;;
32874;SDS011;40468;42.128;24.750;2023-12-29T03:47:23;36.63;;;17.13;;
32874;SDS011;40468;42.128;24.750;2023-12-29T03:48:55;34.67;;;18.05;;
32874;SDS011;40468;42.128;24.750;2023-12-29T03:50:26;32.55;;;16.05;;
32874;SDS011;40468;42.128;24.750;2023-12-29T03:51:57;42.13;;;17.42;;
32874;SDS011;40468;42.128;24.750;2023-12-29T03:53:28;35.50;;;16.50;;
32874;SDS011;40468;42.128;24.750;2023-12-29T03:55:00;32.72;;;16.80;;
32874;SDS011;40468;42.128;24.750;2023-12-29T03:56:31;38.60;;;17.00;;
32874;SDS011;40468;42.128;24.750;2023-12-29T03:58:04;30.60;;;15.38;;
32874;SDS011;40468;42.128;24.750;2023-12-29T03:59:36;31.83;;;16.05;;
32874;SDS011;40468;42.128;24.750;2023-12-29T04:01:08;37.30;;;18.20;;
32874;SDS011;40468;42.128;24.750;2023-12-29T04:02:41;29.17;;;16.65;;
32874;SDS011;40468;42.128;24.750;2023-12-29T04:04:11;38.50;;;17.30;;
32874;SDS011;40468;42.128;24.750;2023-12-29T04:05:43;34.30;;;16.80;;
32874;SDS011;40468;42.128;24.750;2023-12-29T04:07:15;34.38;;;15.25;;
32874;SDS011;40468;42.128;24.750;2023-12-29T04:08:46;43.00;;;20.27;;
32874;SDS011;40468;42.128;24.750;2023-12-29T04:10:17;40.83;;;20.30;;
32874;SDS011;40468;42.128;24.750;2023-12-29T04:11:48;37.53;;;17.30;;
32874;SDS011;40468;42.128;24.750;2023-12-29T04:13:21;34.03;;;16.05;;
32874;SDS011;40468;42.128;24.750;2023-12-29T04:14:52;34.83;;;15.45;;
32874;SDS011;40468;42.128;24.750;2023-12-29T04:16:24;32.55;;;15.35;;
32874;SDS011;40468;42.128;24.750;2023-12-29T04:17:55;31.65;;;15.52;;
32874;SDS011;40468;42.128;24.750;2023-12-29T04:19:27;35.95;;;17.33;;
32874;SDS011;40468;42.128;24.750;2023-12-29T04:20:58;38.17;;;15.88;;
32874;SDS011;40468;42.128;24.750;2023-12-29T04:22:30;34.78;;;16.27;;
32874;SDS011;40468;42.128;24.750;2023-12-29T04:24:01;31.48;;;16.92;;
32874;SDS011;40468;42.128;24.750;2023-12-29T04:25:32;34.90;;;17.08;;
32874;SDS011;40468;42.128;24.750;2023-12-29T04:27:03;31.88;;;17.38;;
32874;SDS011;40468;42.128;24.750;2023-12-29T04:28:37;36.28;;;17.58;;
32874;SDS011;40468;42.128;24.750;2023-12-29T04:30:08;33.63;;;17.25;;
32874;SDS011;40468;42.128;24.750;2023-12-29T04:31:41;42.40;;;17.42;;
32874;SDS011;40468;42.128;24.750;2023-12-29T04:33:12;36.78;;;16.27;;
32874;SDS011;40468;42.128;24.750;2023-12-29T04:34:43;36.72;;;16.98;;
32874;SDS011;40468;42.128;24.750;2023-12-29T04:36:14;39.13;;;17.05;;
32874;SDS011;40468;42.128;24.750;2023-12-29T04:37:46;39.55;;;16.45;;
32874;SDS011;40468;42.128;24.750;2023-12-29T04:39:17;35.78;;;17.48;;
32874;SDS011;40468;42.128;24.750;2023-12-29T04:40:48;35.60;;;17.02;;
32874;SDS011;40468;42.128;24.750;2023-12-29T04:42:20;40.28;;;17.73;;
32874;SDS011;40468;42.128;24.750;2023-12-29T04:43:52;41.22;;;19.40;;
32874;SDS011;40468;42.128;24.750;2023-12-29T04:45:24;35.47;;;17.75;;
32874;SDS011;40468;42.128;24.750;2023-12-29T04:46:55;38.08;;;17.73;;
32874;SDS011;40468;42.128;24.750;2023-12-29T04:48:27;40.92;;;18.23;;
32874;SDS011;40468;42.128;24.750;2023-12-29T04:49:57;39.85;;;17.50;;
32874;SDS011;40468;42.128;24.750;2023-12-29T04:51:29;44.67;;;21.25;;
32874;SDS011;40468;42.128;24.750;2023-12-29T04:53:00;37.53;;;18.30;;
32874;SDS011;40468;42.128;24.750;2023-12-29T04:54:32;45.63;;;19.23;;
32874;SDS011;40468;42.128;24.750;2023-12-29T04:56:02;41.10;;;19.55;;
32874;SDS011;40468;42.128;24.750;2023-12-29T04:57:35;45.28;;;18.88;;
32874;SDS011;40468;42.128;24.750;2023-12-29T04:59:07;39.38;;;17.67;;
32874;SDS011;40468;42.128;24.750;2023-12-29T05:00:39;36.15;;;17.65;;
32874;SDS011;40468;42.128;24.750;2023-12-29T05:02:10;40.70;;;18.52;;
32874;SDS011;40468;42.128;24.750;2023-12-29T05:03:41;44.03;;;18.20;;
32874;SDS011;40468;42.128;24.750;2023-12-29T05:05:13;37.85;;;18.58;;
32874;SDS011;40468;42.128;24.750;2023-12-29T05:06:45;33.92;;;16.45;;
32874;SDS011;40468;42.128;24.750;2023-12-29T05:08:15;40.55;;;19.08;;
32874;SDS011;40468;42.128;24.750;2023-12-29T05:09:47;41.95;;;20.25;;
32874;SDS011;40468;42.128;24.750;2023-12-29T05:11:18;47.05;;;20.95;;
32874;SDS011;40468;42.128;24.750;2023-12-29T05:12:50;42.20;;;19.50;;
32874;SDS011;40468;42.128;24.750;2023-12-29T05:14:22;38.58;;;19.40;;
32874;SDS011;40468;42.128;24.750;2023-12-29T05:15:53;44.22;;;19.02;;
32874;SDS011;40468;42.128;24.750;2023-12-29T05:17:24;40.45;;;20.25;;
32874;SDS011;40468;42.128;24.750;2023-12-29T05:18:56;42.83;;;19.35;;
32874;SDS011;40468;42.128;24.750;2023-12-29T05:20:27;37.72;;;18.25;;
32874;SDS011;40468;42.128;24.750;2023-12-29T05:21:59;38.20;;;17.98;;
32874;SDS011;40468;42.128;24.750;2023-12-29T05:23:29;43.97;;;20.02;;
32874;SDS011;40468;42.128;24.750;2023-12-29T05:25:01;42.55;;;20.55;;
32874;SDS011;40468;42.128;24.750;2023-12-29T05:26:33;51.97;;;22.92;;
32874;SDS011;40468;42.128;24.750;2023-12-29T05:28:05;46.47;;;21.08;;
32874;SDS011;40468;42.128;24.750;2023-12-29T05:29:37;46.53;;;20.42;;
32874;SDS011;40468;42.128;24.750;2023-12-29T05:31:09;45.45;;;21.20;;
32874;SDS011;40468;42.128;24.750;2023-12-29T05:32:40;45.60;;;21.10;;
32874;SDS011;40468;42.128;24.750;2023-12-29T05:34:11;42.70;;;19.98;;
32874;SDS011;40468;42.128;24.750;2023-12-29T05:35:43;47.58;;;20.70;;
32874;SDS011;40468;42.128;24.750;2023-12-29T05:37:14;44.42;;;21.67;;
32874;SDS011;40468;42.128;24.750;2023-12-29T05:38:45;42.70;;;20.48;;
32874;SDS011;40468;42.128;24.750;2023-12-29T05:40:17;44.03;;;19.50;;
32874;SDS011;40468;42.128;24.750;2023-12-29T05:41:48;44.25;;;19.45;;
32874;SDS011;40468;42.128;24.750;2023-12-29T05:43:20;40.20;;;18.83;;
32874;SDS011;40468;42.128;24.750;2023-12-29T05:44:52;41.53;;;20.30;;
32874;SDS011;40468;42.128;24.750;2023-12-29T05:46:24;37.03;;;18.27;;
32874;SDS011;40468;42.128;24.750;2023-12-29T05:47:55;36.42;;;17.40;;
32874;SDS011;40468;42.128;24.750;2023-12-29T05:49:27;37.92;;;17.70;;
32874;SDS011;40468;42.128;24.750;2023-12-29T05:50:58;41.05;;;17.58;;
32874;SDS011;40468;42.128;24.750;2023-12-29T05:52:29;35.72;;;18.35;;
32874;SDS011;40468;42.128;24.750;2023-12-29T05:54:00;43.75;;;19.10;;
32874;SDS011;40468;42.128;24.750;2023-12-29T05:55:32;38.17;;;18.90;;
32874;SDS011;40468;42.128;24.750;2023-12-29T05:57:03;37.70;;;18.73;;
32874;SDS011;40468;42.128;24.750;2023-12-29T05:58:35;92.25;;;36.55;;
32874;SDS011;40468;42.128;24.750;2023-12-29T06:00:08;46.45;;;21.92;;
32874;SDS011;40468;42.128;24.750;2023-12-29T06:01:44;46.70;;;19.52;;
32874;SDS011;40468;42.128;24.750;2023-12-29T06:03:15;39.85;;;20.15;;
32874;SDS011;40468;42.128;24.750;2023-12-29T06:04:47;46.25;;;20.05;;
32874;SDS011;40468;42.128;24.750;2023-12-29T06:06:17;67.20;;;29.02;;
32874;SDS011;40468;42.128;24.750;2023-12-29T06:07:49;55.67;;;25.70;;
32874;SDS011;40468;42.128;24.750;2023-12-29T06:09:20;48.13;;;21.25;;
32874;SDS011;40468;42.128;24.750;2023-12-29T06:10:52;40.20;;;21.33;;
32874;SDS011;40468;42.128;24.750;2023-12-29T06:12:23;47.70;;;22.13;;
32874;SDS011;40468;42.128;24.750;2023-12-29T06:13:55;55.83;;;23.73;;
32874;SDS011;40468;42.128;24.750;2023-12-29T06:15:27;54.35;;;24.67;;
32874;SDS011;40468;42.128;24.750;2023-12-29T06:18:30;45.58;;;21.85;;
32874;SDS011;40468;42.128;24.750;2023-12-29T06:20:02;46.28;;;21.45;;
32874;SDS011;40468;42.128;24.750;2023-12-29T06:23:11;41.50;;;19.33;;
32874;SDS011;40468;42.128;24.750;2023-12-29T06:24:42;39.50;;;19.50;;
32874;SDS011;40468;42.128;24.750;2023-12-29T06:26:14;41.80;;;18.85;;
32874;SDS011;40468;42.128;24.750;2023-12-29T06:27:46;42.17;;;19.60;;
32874;SDS011;40468;42.128;24.750;2023-12-29T06:29:18;46.20;;;19.33;;
32874;SDS011;40468;42.128;24.750;2023-12-29T06:30:50;38.13;;;18.75;;
32874;SDS011;40468;42.128;24.750;2023-12-29T06:32:22;39.55;;;18.77;;
32874;SDS011;40468;42.128;24.750;2023-12-29T06:33:53;38.17;;;18.45;;
32874;SDS011;40468;42.128;24.750;2023-12-29T06:35:25;39.42;;;19.33;;
32874;SDS011;40468;42.128;24.750;2023-12-29T06:36:55;43.33;;;19.48;;
32874;SDS011;40468;42.128;24.750;2023-12-29T06:38:27;44.58;;;20.27;;
32874;SDS011;40468;42.128;24.750;2023-12-29T06:39:58;44.22;;;20.40;;
32874;SDS011;40468;42.128;24.750;2023-12-29T06:41:30;43.65;;;20.17;;
32874;SDS011;40468;42.128;24.750;2023-12-29T06:43:01;42.67;;;19.50;;
32874;SDS011;40468;42.128;24.750;2023-12-29T06:44:33;46.63;;;18.90;;
32874;SDS011;40468;42.128;24.750;2023-12-29T06:46:05;47.00;;;19.48;;
32874;SDS011;40468;42.128;24.750;2023-12-29T06:47:38;37.75;;;17.77;;
32874;SDS011;40468;42.128;24.750;2023-12-29T06:49:10;39.13;;;17.73;;
32874;SDS011;40468;42.128;24.750;2023-12-29T06:50:41;35.33;;;17.92;;
32874;SDS011;40468;42.128;24.750;2023-12-29T06:52:12;37.67;;;17.73;;
32874;SDS011;40468;42.128;24.750;2023-12-29T06:53:45;35.95;;;17.55;;
32874;SDS011;40468;42.128;24.750;2023-12-29T06:55:16;46.35;;;16.80;;
32874;SDS011;40468;42.128;24.750;2023-12-29T06:56:48;38.95;;;15.65;;
32874;SDS011;40468;42.128;24.750;2023-12-29T06:58:19;36.25;;;16.50;;
32874;SDS011;40468;42.128;24.750;2023-12-29T06:59:50;32.17;;;15.13;;
32874;SDS011;40468;42.128;24.750;2023-12-29T07:01:23;31.27;;;15.25;;
32874;SDS011;40468;42.128;24.750;2023-12-29T07:02:55;34.22;;;15.13;;
32874;SDS011;40468;42.128;24.750;2023-12-29T07:04:25;33.55;;;15.10;;
32874;SDS011;40468;42.128;24.750;2023-12-29T07:05:59;25.98;;;13.00;;
32874;SDS011;40468;42.128;24.750;2023-12-29T07:07:32;27.48;;;13.70;;
32874;SDS011;40468;42.128;24.750;2023-12-29T07:09:03;25.30;;;13.10;;
32874;SDS011;40468;42.128;24.750;2023-12-29T07:10:35;30.02;;;14.27;;
32874;SDS011;40468;42.128;24.750;2023-12-29T07:12:05;30.27;;;14.15;;
32874;SDS011;40468;42.128;24.750;2023-12-29T07:13:38;36.45;;;15.35;;
32874;SDS011;40468;42.128;24.750;2023-12-29T07:15:09;30.42;;;13.77;;
32874;SDS011;40468;42.128;24.750;2023-12-29T07:16:45;30.58;;;15.23;;
32874;SDS011;40468;42.128;24.750;2023-12-29T07:18:16;31.65;;;15.85;;
32874;SDS011;40468;42.128;24.750;2023-12-29T07:19:48;36.95;;;15.43;;
32874;SDS011;40468;42.128;24.750;2023-12-29T07:21:20;32.58;;;14.20;;
32874;SDS011;40468;42.128;24.750;2023-12-29T07:22:52;33.08;;;15.68;;
32874;SDS011;40468;42.128;24.750;2023-12-29T07:24:22;30.60;;;14.15;;
32874;SDS011;40468;42.128;24.750;2023-12-29T07:25:54;36.33;;;14.73;;
32874;SDS011;40468;42.128;24.750;2023-12-29T07:27:25;29.35;;;15.25;;
32874;SDS011;40468;42.128;24.750;2023-12-29T07:28:57;29.92;;;14.38;;
32874;SDS011;40468;42.128;24.750;2023-12-29T07:30:28;31.73;;;15.18;;
32874;SDS011;40468;42.128;24.750;2023-12-29T07:32:01;31.40;;;14.13;;
32874;SDS011;40468;42.128;24.750;2023-12-29T07:33:33;28.80;;;14.80;;
32874;SDS011;40468;42.128;24.750;2023-12-29T07:35:05;33.47;;;15.35;;
32874;SDS011;40468;42.128;24.750;2023-12-29T07:36:37;27.23;;;14.38;;
32874;SDS011;40468;42.128;24.750;2023-12-29T07:38:10;36.80;;;16.13;;
32874;SDS011;40468;42.128;24.750;2023-12-29T07:39:41;29.75;;;14.48;;
32874;SDS011;40468;42.128;24.750;2023-12-29T07:41:12;31.95;;;14.73;;
32874;SDS011;40468;42.128;24.750;2023-12-29T07:42:44;30.58;;;13.98;;
32874;SDS011;40468;42.128;24.750;2023-12-29T07:44:20;23.90;;;12.05;;
32874;SDS011;40468;42.128;24.750;2023-12-29T07:45:52;28.77;;;12.43;;
32874;SDS011;40468;42.128;24.750;2023-12-29T07:47:24;26.88;;;12.43;;
32874;SDS011;40468;42.128;24.750;2023-12-29T07:48:56;28.42;;;12.82;;
32874;SDS011;40468;42.128;24.750;2023-12-29T07:50:26;27.17;;;13.60;;
32874;SDS011;40468;42.128;24.750;2023-12-29T07:51:58;29.63;;;13.70;;
32874;SDS011;40468;42.128;24.750;2023-12-29T07:53:29;27.15;;;13.63;;
32874;SDS011;40468;42.128;24.750;2023-12-29T07:55:01;27.60;;;12.48;;
32874;SDS011;40468;42.128;24.750;2023-12-29T07:56:32;28.85;;;13.93;;
32874;SDS011;40468;42.128;24.750;2023-12-29T07:58:04;29.00;;;13.55;;
32874;SDS011;40468;42.128;24.750;2023-12-29T07:59:35;26.20;;;12.93;;
32874;SDS011;40468;42.128;24.750;2023-12-29T08:01:07;27.30;;;13.82;;
32874;SDS011;40468;42.128;24.750;2023-12-29T08:02:40;24.58;;;12.80;;
32874;SDS011;40468;42.128;24.750;2023-12-29T08:04:12;25.77;;;12.75;;
32874;SDS011;40468;42.128;24.750;2023-12-29T08:05:42;29.15;;;13.85;;
32874;SDS011;40468;42.128;24.750;2023-12-29T08:07:16;23.17;;;12.48;;
32874;SDS011;40468;42.128;24.750;2023-12-29T08:08:47;26.35;;;12.30;;
32874;SDS011;40468;42.128;24.750;2023-12-29T08:10:18;21.55;;;11.50;;
32874;SDS011;40468;42.128;24.750;2023-12-29T08:11:49;27.45;;;12.05;;
32874;SDS011;40468;42.128;24.750;2023-12-29T08:13:21;26.73;;;11.52;;
32874;SDS011;40468;42.128;24.750;2023-12-29T08:14:52;25.08;;;11.93;;
32874;SDS011;40468;42.128;24.750;2023-12-29T08:16:24;21.70;;;10.52;;
32874;SDS011;40468;42.128;24.750;2023-12-29T08:17:56;25.92;;;12.05;;
32874;SDS011;40468;42.128;24.750;2023-12-29T08:20:58;23.05;;;11.85;;
32874;SDS011;40468;42.128;24.750;2023-12-29T08:22:30;24.35;;;13.30;;
32874;SDS011;40468;42.128;24.750;2023-12-29T08:24:02;27.98;;;13.27;;
32874;SDS011;40468;42.128;24.750;2023-12-29T08:25:34;27.13;;;13.60;;
32874;SDS011;40468;42.128;24.750;2023-12-29T08:27:07;25.88;;;13.18;;
32874;SDS011;40468;42.128;24.750;2023-12-29T08:28:38;24.33;;;11.35;;
32874;SDS011;40468;42.128;24.750;2023-12-29T08:30:09;20.75;;;11.05;;
32874;SDS011;40468;42.128;24.750;2023-12-29T08:31:42;22.98;;;11.15;;
32874;SDS011;40468;42.128;24.750;2023-12-29T08:33:14;21.42;;;10.27;;
32874;SDS011;40468;42.128;24.750;2023-12-29T08:34:46;22.88;;;10.65;;
32874;SDS011;40468;42.128;24.750;2023-12-29T08:36:18;23.80;;;10.65;;
32874;SDS011;40468;42.128;24.750;2023-12-29T08:37:51;22.90;;;10.40;;
32874;SDS011;40468;42.128;24.750;2023-12-29T08:39:22;21.45;;;9.20;;
32874;SDS011;40468;42.128;24.750;2023-12-29T08:40:54;17.42;;;8.52;;
32874;SDS011;40468;42.128;24.750;2023-12-29T08:42:26;21.00;;;9.00;;
32874;SDS011;40468;42.128;24.750;2023-12-29T08:43:58;16.38;;;8.25;;
32874;SDS011;40468;42.128;24.750;2023-12-29T08:45:28;21.45;;;9.32;;
32874;SDS011;40468;42.128;24.750;2023-12-29T08:47:00;19.35;;;9.63;;
32874;SDS011;40468;42.128;24.750;2023-12-29T08:48:32;23.48;;;10.35;;
32874;SDS011;40468;42.128;24.750;2023-12-29T08:50:04;21.55;;;10.05;;
32874;SDS011;40468;42.128;24.750;2023-12-29T08:51:36;21.25;;;10.80;;
32874;SDS011;40468;42.128;24.750;2023-12-29T08:53:08;21.33;;;10.57;;
32874;SDS011;40468;42.128;24.750;2023-12-29T08:54:39;27.65;;;12.20;;
32874;SDS011;40468;42.128;24.750;2023-12-29T08:56:10;28.17;;;11.98;;